createdAt,value
2022-08-01T00:00:09.403Z,21.70
2022-08-01T00:02:39.875Z,21.70
2022-08-01T00:05:08.842Z,21.70
2022-08-01T00:07:36.272Z,21.60
2022-08-01T00:10:05.756Z,21.60
2022-08-01T00:12:32.805Z,21.60
2022-08-01T00:14:59.544Z,21.60
2022-08-01T00:17:26.377Z,21.60
2022-08-01T00:19:53.111Z,21.60
2022-08-01T00:22:19.921Z,21.60
2022-08-01T00:24:46.644Z,21.50
2022-08-01T00:27:13.415Z,21.50
2022-08-01T00:30:11.221Z,21.50
2022-08-01T00:32:26.867Z,21.50
2022-08-01T00:34:53.554Z,21.60
2022-08-01T00:37:20.283Z,21.60
2022-08-01T00:39:47.021Z,21.60
2022-08-01T00:42:13.990Z,21.60
2022-08-01T00:44:41.394Z,21.60
2022-08-01T00:47:08.817Z,21.70
2022-08-01T00:49:35.954Z,21.70
2022-08-01T00:52:05.693Z,21.70
2022-08-01T00:54:33.316Z,21.60
2022-08-01T00:57:00.391Z,21.60
2022-08-01T00:59:27.914Z,21.60
2022-08-01T01:01:55.287Z,21.60
2022-08-01T01:04:23.383Z,21.60
2022-08-01T01:07:22.249Z,21.60
2022-08-01T01:10:02.111Z,21.60
2022-08-01T01:12:50.005Z,21.60
2022-08-01T01:15:23.925Z,21.60
2022-08-01T01:18:08.138Z,21.60
2022-08-01T01:20:43.416Z,21.50
2022-08-01T01:23:19.005Z,21.50
2022-08-01T01:26:17.646Z,21.40
2022-08-01T01:29:15.931Z,21.40
2022-08-01T01:31:52.440Z,21.30
2022-08-01T01:34:22.193Z,21.40
2022-08-01T01:36:52.992Z,21.40
2022-08-01T01:39:21.265Z,21.40
2022-08-01T01:41:49.811Z,21.50
2022-08-01T01:44:18.392Z,21.50
2022-08-01T01:46:45.952Z,21.40
2022-08-01T01:49:13.387Z,21.40
2022-08-01T01:51:42.311Z,21.40
2022-08-01T01:54:21.829Z,21.40
2022-08-01T01:56:50.575Z,21.40
2022-08-01T01:59:25.806Z,21.30
2022-08-01T02:02:08.899Z,21.30
2022-08-01T02:04:43.628Z,21.30
2022-08-01T02:07:13.310Z,21.30
2022-08-01T02:09:42.839Z,21.30
2022-08-01T02:12:13.223Z,21.20
2022-08-01T02:14:41.490Z,21.20
2022-08-01T02:17:11.807Z,21.20
2022-08-01T02:19:39.296Z,21.20
2022-08-01T02:22:11.203Z,21.10
2022-08-01T02:24:45.392Z,21.10
2022-08-01T02:27:41.421Z,21.00
2022-08-01T02:30:11.452Z,21.00
2022-08-01T02:32:38.090Z,21.00
2022-08-01T02:35:08.778Z,21.00
2022-08-01T02:37:42.957Z,20.90
2022-08-01T02:40:15.849Z,20.90
2022-08-01T02:42:46.458Z,20.80
2022-08-01T02:45:14.634Z,20.80
2022-08-01T02:47:43.203Z,20.80
2022-08-01T02:50:13.332Z,20.70
2022-08-01T02:52:42.709Z,20.60
2022-08-01T02:55:11.252Z,20.60
2022-08-01T02:57:52.376Z,20.60
2022-08-01T03:00:22.521Z,20.50
2022-08-01T03:02:55.714Z,20.40
2022-08-01T03:05:23.680Z,20.40
2022-08-01T03:07:51.969Z,20.40
2022-08-01T03:10:20.226Z,20.40
2022-08-01T03:12:49.238Z,20.50
2022-08-01T03:15:16.942Z,20.50
2022-08-01T03:17:46.679Z,20.50
2022-08-01T03:20:17.479Z,20.50
2022-08-01T03:22:45.735Z,20.50
2022-08-01T03:25:14.656Z,20.50
2022-08-01T03:27:44.181Z,20.40
2022-08-01T03:30:12.301Z,20.30
2022-08-01T03:32:39.715Z,20.30
2022-08-01T03:35:07.096Z,20.20
2022-08-01T03:38:13.446Z,20.20
2022-08-01T03:40:39.580Z,20.20
2022-08-01T03:43:17.926Z,20.10
2022-08-01T03:45:50.324Z,20.00
2022-08-01T03:48:23.520Z,20.00
2022-08-01T03:50:53.291Z,19.90
2022-08-01T03:53:24.031Z,20.00
2022-08-01T03:55:51.868Z,19.90
2022-08-01T03:58:19.407Z,19.80
2022-08-01T04:00:47.155Z,19.70
2022-08-01T04:03:14.622Z,19.70
2022-08-01T04:05:44.602Z,19.70
2022-08-01T04:08:11.570Z,19.70
2022-08-01T04:10:38.633Z,19.80
2022-08-01T04:13:05.350Z,19.90
2022-08-01T04:15:32.123Z,19.90
2022-08-01T04:17:59.028Z,19.90
2022-08-01T04:20:25.734Z,19.90
2022-08-01T04:22:52.765Z,20.00
2022-08-01T04:25:36.112Z,19.90
2022-08-01T04:28:05.080Z,19.90
2022-08-01T04:30:35.160Z,20.00
2022-08-01T04:33:06.113Z,20.00
2022-08-01T04:36:02.667Z,20.00
2022-08-01T04:38:25.267Z,20.00
2022-08-01T04:40:53.136Z,20.00
2022-08-01T04:43:19.923Z,20.00
2022-08-01T04:45:48.250Z,20.00
2022-08-01T04:48:18.235Z,20.00
2022-08-01T04:50:45.308Z,19.90
2022-08-01T04:53:17.788Z,20.00
2022-08-01T04:55:49.685Z,20.00
2022-08-01T04:58:18.491Z,20.10
2022-08-01T05:00:46.399Z,20.20
2022-08-01T05:03:13.214Z,20.20
2022-08-01T05:05:39.995Z,20.30
2022-08-01T05:08:07.168Z,20.30
2022-08-01T05:10:34.565Z,20.40
2022-08-01T05:13:01.355Z,20.40
2022-08-01T05:15:28.273Z,20.50
2022-08-01T05:17:55.529Z,20.50
2022-08-01T05:20:22.340Z,20.50
2022-08-01T05:22:50.221Z,20.50
2022-08-01T05:25:20.121Z,20.50
2022-08-01T05:27:53.559Z,20.50
2022-08-01T05:30:20.717Z,20.50
2022-08-01T05:32:47.450Z,20.50
2022-08-01T05:35:14.317Z,20.50
2022-08-01T05:37:40.974Z,20.60
2022-08-01T05:40:08.213Z,20.60
2022-08-01T05:42:34.940Z,20.70
2022-08-01T05:45:01.699Z,20.80
2022-08-01T05:47:28.407Z,20.90
2022-08-01T05:49:55.291Z,20.90
2022-08-01T05:52:21.992Z,21.00
2022-08-01T05:54:48.780Z,21.10
2022-08-01T05:57:15.651Z,21.10
2022-08-01T05:59:42.359Z,21.10
2022-08-01T06:02:09.794Z,21.10
2022-08-01T06:04:36.828Z,21.10
2022-08-01T06:07:03.600Z,21.20
2022-08-01T06:09:31.666Z,21.30
2022-08-01T06:11:58.672Z,21.30
2022-08-01T06:14:25.459Z,21.40
2022-08-01T06:16:52.150Z,21.30
2022-08-01T06:19:18.914Z,21.30
2022-08-01T06:21:45.615Z,21.30
2022-08-01T06:24:12.365Z,21.30
2022-08-01T06:26:39.240Z,21.30
2022-08-01T06:29:05.983Z,21.30
2022-08-01T06:31:33.945Z,21.40
2022-08-01T06:34:01.342Z,21.40
2022-08-01T06:36:28.207Z,21.50
2022-08-01T06:38:54.907Z,21.50
2022-08-01T06:41:21.686Z,21.60
2022-08-01T06:43:48.458Z,21.70
2022-08-01T06:46:15.255Z,21.90
2022-08-01T06:48:42.016Z,21.90
2022-08-01T06:51:09.142Z,22.00
2022-08-01T06:53:39.239Z,22.00
2022-08-01T06:56:07.268Z,22.10
2022-08-01T06:58:35.530Z,22.20
2022-08-01T07:01:03.227Z,22.10
2022-08-01T07:03:54.494Z,22.10
2022-08-01T07:06:19.488Z,22.10
2022-08-01T07:08:46.213Z,22.20
2022-08-01T07:11:12.879Z,22.30
2022-08-01T07:13:44.384Z,22.40
2022-08-01T07:16:16.387Z,22.70
2022-08-01T07:18:43.310Z,23.10
2022-08-01T07:21:16.703Z,23.50
2022-08-01T07:23:57.041Z,23.40
2022-08-01T07:26:23.809Z,23.30
2022-08-01T07:28:50.609Z,23.20
2022-08-01T07:31:17.555Z,23.30
2022-08-01T07:33:48.652Z,23.40
2022-08-01T07:36:17.687Z,23.50
2022-08-01T07:38:45.365Z,23.70
2022-08-01T07:41:12.314Z,23.90
2022-08-01T07:43:39.088Z,24.00
2022-08-01T07:46:06.189Z,24.00
2022-08-01T07:48:33.318Z,24.20
2022-08-01T07:51:00.310Z,24.40
2022-08-01T07:53:27.145Z,24.60
2022-08-01T07:55:53.913Z,24.70
2022-08-01T07:58:20.769Z,25.00
2022-08-01T08:00:47.465Z,25.00
2022-08-01T08:03:14.144Z,25.00
2022-08-01T08:05:57.772Z,25.00
2022-08-01T08:08:26.311Z,25.10
2022-08-01T08:10:53.102Z,25.30
2022-08-01T08:13:19.881Z,25.30
2022-08-01T08:15:48.502Z,25.30
2022-08-01T08:18:16.143Z,25.40
2022-08-01T08:20:43.012Z,25.50
2022-08-01T08:23:42.378Z,25.60
2022-08-01T08:26:11.701Z,25.60
2022-08-01T08:28:38.496Z,25.70
2022-08-01T08:31:07.553Z,25.80
2022-08-01T08:33:53.067Z,25.90
2022-08-01T08:36:19.805Z,25.80
2022-08-01T08:38:46.541Z,25.90
2022-08-01T08:41:17.936Z,25.80
2022-08-01T08:43:47.552Z,25.80
2022-08-01T08:46:15.731Z,25.80
2022-08-01T08:48:42.899Z,25.90
2022-08-01T08:51:12.270Z,26.10
2022-08-01T08:53:44.782Z,26.30
2022-08-01T08:56:15.415Z,26.30
2022-08-01T08:58:44.582Z,26.30
2022-08-01T09:01:13.330Z,26.30
2022-08-01T09:03:41.465Z,26.40
2022-08-01T09:06:08.401Z,26.90
2022-08-01T09:08:36.157Z,27.10
2022-08-01T09:11:03.261Z,27.10
2022-08-01T09:13:30.157Z,27.10
2022-08-01T09:16:00.636Z,27.00
2022-08-01T09:18:35.085Z,26.50
2022-08-01T09:21:13.200Z,26.10
2022-08-01T09:23:54.427Z,26.20
2022-08-01T09:26:36.790Z,26.40
2022-08-01T09:29:17.650Z,26.60
2022-08-01T09:32:07.638Z,26.50
2022-08-01T09:34:34.969Z,26.30
2022-08-01T09:37:03.686Z,26.40
2022-08-01T09:39:38.526Z,26.20
2022-08-01T09:42:28.683Z,26.00
2022-08-01T09:44:56.440Z,25.60
2022-08-01T09:47:37.223Z,25.40
2022-08-01T09:50:10.735Z,25.20
2022-08-01T09:52:40.908Z,25.00
2022-08-01T09:55:08.806Z,24.80
2022-08-01T09:57:35.661Z,24.60
2022-08-01T10:00:03.887Z,24.60
2022-08-01T10:02:34.993Z,24.70
2022-08-01T10:05:08.392Z,24.80
2022-08-01T10:07:42.690Z,25.10
2022-08-01T10:10:16.227Z,25.30
2022-08-01T10:12:45.662Z,25.50
2022-08-01T10:15:17.971Z,25.60
2022-08-01T10:17:57.392Z,25.90
2022-08-01T10:20:32.229Z,26.00
2022-08-01T10:23:01.857Z,26.10
2022-08-01T10:25:42.560Z,26.10
2022-08-01T10:28:21.302Z,26.00
2022-08-01T10:30:52.100Z,25.90
2022-08-01T10:33:50.611Z,25.80
2022-08-01T10:36:11.421Z,25.70
2022-08-01T10:38:38.725Z,25.60
2022-08-01T10:41:09.065Z,25.70
2022-08-01T10:43:36.890Z,25.90
2022-08-01T10:46:05.692Z,26.10
2022-08-01T10:48:43.849Z,26.40
2022-08-01T10:51:18.839Z,26.90
2022-08-01T10:53:54.690Z,27.20
2022-08-01T10:56:27.216Z,27.20
2022-08-01T10:59:06.250Z,27.00
2022-08-01T11:01:38.887Z,26.70
2022-08-01T11:04:17.019Z,26.60
2022-08-01T11:06:51.924Z,26.70
2022-08-01T11:09:24.773Z,26.70
2022-08-01T11:12:13.208Z,26.90
2022-08-01T11:15:18.066Z,26.90
2022-08-01T11:17:57.766Z,26.90
2022-08-01T11:20:31.519Z,26.90
2022-08-01T11:23:02.061Z,27.10
2022-08-01T11:26:05.919Z,27.10
2022-08-01T11:28:36.980Z,27.10
2022-08-01T11:31:10.768Z,27.10
2022-08-01T11:33:46.938Z,26.90
2022-08-01T11:36:14.735Z,27.10
2022-08-01T11:38:44.173Z,27.40
2022-08-01T11:41:38.044Z,27.40
2022-08-01T11:44:14.343Z,27.40
2022-08-01T11:46:51.083Z,27.50
2022-08-01T11:49:24.087Z,27.60
2022-08-01T11:52:15.626Z,27.50
2022-08-01T11:54:50.259Z,27.60
2022-08-01T11:57:39.946Z,27.50
2022-08-01T12:00:16.675Z,27.30
2022-08-01T12:02:46.200Z,27.30
2022-08-01T12:05:21.379Z,27.20
2022-08-01T12:07:53.802Z,27.10
2022-08-01T12:10:22.939Z,27.20
2022-08-01T12:13:00.910Z,27.20
2022-08-01T12:15:38.595Z,27.20
2022-08-01T12:18:07.258Z,27.30
2022-08-01T12:20:38.098Z,27.40
2022-08-01T12:23:10.453Z,27.40
2022-08-01T12:25:40.111Z,27.50
2022-08-01T12:28:10.080Z,27.70
2022-08-01T12:30:37.899Z,27.70
2022-08-01T12:33:06.556Z,27.60
2022-08-01T12:35:34.512Z,27.70
2022-08-01T12:38:03.459Z,27.60
2022-08-01T12:40:45.626Z,27.50
2022-08-01T12:43:27.194Z,27.50
2022-08-01T12:45:57.887Z,27.40
2022-08-01T12:48:26.202Z,27.50
2022-08-01T12:50:53.932Z,27.30
2022-08-01T12:53:22.182Z,27.20
2022-08-01T12:55:59.274Z,27.10
2022-08-01T12:58:32.891Z,27.10
2022-08-01T13:01:11.123Z,27.00
2022-08-01T13:03:38.609Z,27.00
2022-08-01T13:06:16.839Z,26.90
2022-08-01T13:08:45.289Z,26.90
2022-08-01T13:11:17.341Z,26.80
2022-08-01T13:13:48.187Z,26.90
2022-08-01T13:16:25.927Z,27.30
2022-08-01T13:19:03.348Z,27.30
2022-08-01T13:21:52.135Z,27.20
2022-08-01T13:24:33.202Z,27.40
2022-08-01T13:27:04.220Z,27.60
2022-08-01T13:29:40.978Z,27.90
2022-08-01T13:32:27.556Z,28.10
2022-08-01T13:35:05.847Z,28.10
2022-08-01T13:37:33.000Z,27.80
2022-08-01T13:39:59.955Z,27.40
2022-08-01T13:42:26.980Z,27.30
2022-08-01T13:44:53.747Z,27.50
2022-08-01T13:47:29.348Z,27.70
2022-08-01T13:50:01.927Z,27.90
2022-08-01T13:52:31.742Z,28.20
2022-08-01T13:54:59.177Z,28.20
2022-08-01T13:57:25.967Z,28.30
2022-08-01T14:00:06.789Z,28.40
2022-08-01T14:02:33.615Z,28.70
2022-08-01T14:05:00.421Z,28.60
2022-08-01T14:07:27.295Z,28.40
2022-08-01T14:10:04.708Z,28.20
2022-08-01T14:12:42.250Z,28.00
2022-08-01T14:15:36.825Z,27.90
2022-08-01T14:18:03.184Z,27.80
2022-08-01T14:20:32.861Z,27.60
2022-08-01T14:22:59.955Z,27.60
2022-08-01T14:26:00.676Z,27.60
2022-08-01T14:28:13.479Z,27.60
2022-08-01T14:30:42.196Z,27.60
2022-08-01T14:33:09.598Z,27.60
2022-08-01T14:36:05.775Z,27.70
2022-08-01T14:38:31.697Z,27.80
2022-08-01T14:41:00.544Z,28.10
2022-08-01T14:43:32.938Z,28.40
2022-08-01T14:46:04.664Z,28.20
2022-08-01T14:48:31.971Z,28.00
2022-08-01T14:51:00.063Z,27.80
2022-08-01T14:53:26.953Z,27.70
2022-08-01T14:55:53.769Z,27.60
2022-08-01T14:58:20.763Z,27.70
2022-08-01T15:00:48.072Z,28.00
2022-08-01T15:03:14.878Z,28.10
2022-08-01T15:05:41.910Z,28.20
2022-08-01T15:08:08.810Z,28.10
2022-08-01T15:10:35.608Z,28.10
2022-08-01T15:13:02.675Z,27.90
2022-08-01T15:15:29.861Z,27.90
2022-08-01T15:17:57.151Z,27.90
2022-08-01T15:20:24.188Z,27.80
2022-08-01T15:22:51.017Z,27.80
2022-08-01T15:25:17.731Z,27.90
2022-08-01T15:27:44.825Z,27.90
2022-08-01T15:30:12.044Z,28.00
2022-08-01T15:32:39.305Z,28.10
2022-08-01T15:35:07.228Z,28.20
2022-08-01T15:37:34.038Z,28.20
2022-08-01T15:40:03.794Z,28.10
2022-08-01T15:42:30.520Z,27.90
2022-08-01T15:44:57.259Z,27.80
2022-08-01T15:47:25.050Z,27.70
2022-08-01T15:49:52.634Z,27.80
2022-08-01T15:52:21.519Z,27.90
2022-08-01T15:54:49.705Z,27.90
2022-08-01T15:57:16.686Z,27.70
2022-08-01T15:59:43.536Z,27.40
2022-08-01T16:02:10.788Z,27.10
2022-08-01T16:04:39.017Z,27.00
2022-08-01T16:07:06.565Z,26.90
2022-08-01T16:09:33.411Z,26.80
2022-08-01T16:12:00.388Z,26.80
2022-08-01T16:14:27.193Z,26.80
2022-08-01T16:16:56.866Z,26.80
2022-08-01T16:19:24.170Z,27.00
2022-08-01T16:21:52.305Z,27.10
2022-08-01T16:24:19.070Z,27.20
2022-08-01T16:26:45.908Z,27.20
2022-08-01T16:29:12.799Z,27.20
2022-08-01T16:31:52.028Z,27.20
2022-08-01T16:34:26.363Z,27.30
2022-08-01T16:36:55.287Z,27.30
2022-08-01T16:39:23.702Z,27.30
2022-08-01T16:41:54.922Z,27.30
2022-08-01T16:44:34.175Z,27.30
2022-08-01T16:47:03.611Z,27.40
2022-08-01T16:49:32.004Z,27.40
2022-08-01T16:51:59.109Z,27.40
2022-08-01T16:54:26.467Z,27.20
2022-08-01T16:56:54.191Z,27.20
2022-08-01T16:59:21.032Z,27.20
2022-08-01T17:01:56.235Z,27.10
2022-08-01T17:04:32.402Z,27.20
2022-08-01T17:06:59.252Z,27.10
2022-08-01T17:09:25.994Z,27.10
2022-08-01T17:11:52.704Z,27.00
2022-08-01T17:14:19.490Z,27.00
2022-08-01T17:16:46.537Z,26.90
2022-08-01T17:19:14.731Z,26.80
2022-08-01T17:21:42.411Z,26.70
2022-08-01T17:24:09.681Z,26.60
2022-08-01T17:26:36.503Z,26.60
2022-08-01T17:29:03.814Z,26.50
2022-08-01T17:31:30.575Z,26.50
2022-08-01T17:33:57.276Z,26.40
2022-08-01T17:36:24.034Z,26.40
2022-08-01T17:38:50.835Z,26.30
2022-08-01T17:41:17.739Z,26.30
2022-08-01T17:43:44.507Z,26.30
2022-08-01T17:46:11.385Z,26.30
2022-08-01T17:48:38.192Z,26.30
2022-08-01T17:51:06.346Z,26.20
2022-08-01T17:53:33.677Z,26.20
2022-08-01T17:56:02.301Z,26.20
2022-08-01T17:58:49.919Z,26.20
2022-08-01T18:01:18.685Z,26.20
2022-08-01T18:03:46.211Z,26.10
2022-08-01T18:06:17.009Z,26.00
2022-08-01T18:08:46.875Z,25.90
2022-08-01T18:11:15.509Z,25.90
2022-08-01T18:13:42.837Z,25.80
2022-08-01T18:16:11.232Z,25.70
2022-08-01T18:18:39.100Z,25.60
2022-08-01T18:21:06.759Z,25.60
2022-08-01T18:23:34.650Z,25.50
2022-08-01T18:26:02.486Z,25.50
2022-08-01T18:28:37.955Z,25.40
2022-08-01T18:31:09.019Z,25.30
2022-08-01T18:33:36.454Z,25.30
2022-08-01T18:36:04.549Z,25.20
2022-08-01T18:38:33.187Z,25.20
2022-08-01T18:41:01.427Z,25.10
2022-08-01T18:43:28.553Z,25.00
2022-08-01T18:45:57.438Z,25.00
2022-08-01T18:48:24.778Z,24.90
2022-08-01T18:50:53.655Z,24.90
2022-08-01T18:53:21.088Z,24.80
2022-08-01T18:55:47.948Z,24.80
2022-08-01T18:58:15.006Z,24.70
2022-08-01T19:00:42.274Z,24.70
2022-08-01T19:03:09.770Z,24.70
2022-08-01T19:05:37.252Z,24.60
2022-08-01T19:08:07.529Z,24.60
2022-08-01T19:10:36.318Z,24.60
2022-08-01T19:13:03.609Z,24.50
2022-08-01T19:15:30.945Z,24.50
2022-08-01T19:17:58.210Z,24.50
2022-08-01T19:20:25.148Z,24.40
2022-08-01T19:22:52.068Z,24.40
2022-08-01T19:25:19.168Z,24.30
2022-08-01T19:27:48.679Z,24.30
2022-08-01T19:30:17.069Z,24.30
2022-08-01T19:32:45.667Z,24.20
2022-08-01T19:35:14.563Z,24.10
2022-08-01T19:37:47.649Z,24.10
2022-08-01T19:40:26.607Z,24.10
2022-08-01T19:42:55.861Z,24.00
2022-08-01T19:45:22.941Z,24.00
2022-08-01T19:47:56.853Z,23.90
2022-08-01T19:50:26.458Z,23.90
2022-08-01T19:52:55.606Z,23.90
2022-08-01T19:55:24.160Z,23.80
2022-08-01T20:00:40.929Z,23.70
2022-08-01T20:03:09.575Z,23.60
2022-08-01T20:05:37.384Z,23.60
2022-08-01T20:08:06.983Z,23.50
2022-08-01T20:10:37.524Z,23.50
2022-08-01T20:13:05.323Z,23.50
2022-08-01T20:15:32.337Z,23.40
2022-08-01T20:17:59.291Z,23.40
2022-08-01T20:20:27.431Z,23.40
2022-08-01T20:22:57.392Z,23.40
2022-08-01T20:25:33.580Z,23.30
2022-08-01T20:28:11.051Z,23.30
2022-08-01T20:30:39.763Z,23.20
2022-08-01T20:33:07.926Z,23.10
2022-08-01T20:35:52.169Z,23.10
2022-08-01T20:38:27.844Z,23.10
2022-08-01T20:40:58.677Z,23.10
2022-08-01T20:43:28.875Z,23.10
2022-08-01T20:45:56.516Z,23.00
2022-08-01T20:48:25.429Z,23.00
2022-08-01T20:51:10.626Z,23.00
2022-08-01T20:53:42.314Z,23.00
2022-08-01T20:56:27.813Z,22.90
2022-08-01T20:59:11.569Z,22.90
2022-08-01T21:02:20.464Z,22.90
2022-08-01T21:04:57.800Z,22.90
2022-08-01T21:07:32.745Z,22.80
2022-08-01T21:10:05.484Z,22.80
2022-08-01T21:12:48.671Z,22.80
2022-08-01T21:15:27.136Z,22.70
2022-08-01T21:18:12.164Z,22.70
2022-08-01T21:21:00.441Z,22.60
2022-08-01T21:23:32.128Z,22.60
2022-08-01T21:25:59.783Z,22.60
2022-08-01T21:28:27.942Z,22.60
2022-08-01T21:30:59.281Z,22.50
2022-08-01T21:33:28.157Z,22.50
2022-08-01T21:36:01.269Z,22.50
2022-08-01T21:38:32.631Z,22.50
2022-08-01T21:41:03.849Z,22.40
2022-08-01T21:43:33.201Z,22.40
2022-08-01T21:46:00.979Z,22.40
2022-08-01T21:48:30.198Z,22.30
2022-08-01T21:51:16.958Z,22.30
2022-08-01T21:53:54.483Z,22.30
2022-08-01T21:56:44.763Z,22.30
2022-08-01T21:59:38.798Z,22.20
2022-08-01T22:02:16.818Z,22.20
2022-08-01T22:04:53.598Z,22.10
2022-08-01T22:07:22.604Z,22.10
2022-08-01T22:09:50.406Z,22.10
2022-08-01T22:12:18.798Z,22.10
2022-08-01T22:14:49.085Z,22.00
2022-08-01T22:17:22.610Z,22.00
2022-08-01T22:19:53.752Z,22.00
2022-08-01T22:22:50.169Z,22.00
2022-08-01T22:25:12.419Z,22.00
2022-08-01T22:28:05.618Z,22.00
2022-08-01T22:30:29.495Z,22.00
2022-08-01T22:33:07.247Z,21.90
2022-08-01T22:35:48.467Z,21.90
2022-08-01T22:38:18.728Z,21.90
2022-08-01T22:40:50.282Z,21.80
2022-08-01T22:43:41.857Z,21.80
2022-08-01T22:46:39.753Z,21.80
2022-08-01T22:49:15.393Z,21.70
2022-08-01T22:51:55.096Z,21.70
2022-08-01T22:54:46.616Z,21.80
2022-08-01T22:57:24.409Z,21.80
2022-08-01T23:00:04.210Z,21.70
2022-08-01T23:02:33.224Z,21.70
2022-08-01T23:05:04.529Z,21.70
2022-08-01T23:07:46.012Z,21.70
2022-08-01T23:10:13.269Z,21.60
2022-08-01T23:12:40.724Z,21.50
2022-08-01T23:15:08.845Z,21.50
2022-08-01T23:17:36.728Z,21.50
2022-08-01T23:20:06.807Z,21.50
2022-08-01T23:22:35.391Z,21.50
2022-08-01T23:25:06.560Z,21.50
2022-08-01T23:27:51.905Z,21.40
2022-08-01T23:30:31.390Z,21.40
2022-08-01T23:32:58.403Z,21.30
2022-08-01T23:35:26.008Z,21.20
2022-08-01T23:37:55.798Z,21.30
2022-08-01T23:40:30.490Z,21.30
2022-08-01T23:42:57.382Z,21.30
2022-08-01T23:45:24.217Z,21.30
2022-08-01T23:47:51.817Z,21.30
2022-08-01T23:50:19.150Z,21.20
2022-08-01T23:52:51.171Z,21.20
2022-08-01T23:55:23.851Z,21.20
2022-08-01T23:58:03.932Z,21.20
